Anson, ME

4:51 AM EST on December 25, 2014 (GMT -0500)
Auburn-Lewiston Municipal | Change Station
CLOSE
Current Station
Airport
Location: Auburn-Lewiston,
Elevation: 289 ft
Nearby Weather Stations
Active Advisory: Areal Flood Watch

Elev 289 ft 44.05 °N, 70.28 °W | Updated 16 minutes ago

Fog
Fog
36 °F
Feels Like 36 °F
N
0
Wind Variable Wind from North

Today
High -- | Low -- °F
--% Chance of Precip.
Yesterday
High -- | Low -- °F
Precip. -- in
7:15 AM 4:04 PM
Waxing Crescent, 15% visible
Pressure 29.46 in
Visibility 1.2 miles
Clouds Overcast 600 ft
Dew Point 34 °F
Humidity 93%
Rainfall 0.02 in
Snow Depth Not available.
UV 0 out of 12
Pollen .10 out of 12
Air Quality Not available.
Flu Activity Not available.
METAR KLEW 250935Z AUTO 00000KT 1 1/4SM OVC006 02/01 A2946 RMK AO1

More Conditions Fewer Conditions

Pressure 29.46 in
Visibility 1.2 miles
Clouds Overcast 600 ft
Dew Point 34 °F
Humidity 93%
Rainfall 0.02 in
Snow Depth Not available.
UV 0 out of 12
Pollen .10 out of 12
Air Quality Not available.
Flu Activity Not available.
METAR KLEW 250935Z AUTO 00000KT 1 1/4SM OVC006 02/01 A2946 RMK AO1

More Conditions Fewer Conditions

10-Day Weather Forecast

Almanac

Astronomy

Dec. 25, 2014 Rise Set
Actual Time
Civil Twilight
Nautical Twilight
Astronomical Twilight
Moon
Length of Visible Light
Length of Day
Tomorrow will be .
, % of the Moon is Illuminated

Today's Extremes

State Highs State Lows

Community

WunderPhotos

Upload Photos

1,780,251 photos uploaded!

WunderBlogs® & News

Nearby

Air Quality

  Air Quality AQ Index Pollutant
Not available.

Snow Depth

Station Depth Elevation

Earthquake Activity

City Distance Mag. Time & Date
Minimum magnitude displayed is 2.5.

Coastal Water Temperatures

Place Temperature

Nearby Weather Stations